createdAt,value
2023-04-15T00:01:12.118Z,8.30
2023-04-15T00:03:39.864Z,4.95
2023-04-15T00:06:15.344Z,6.15
2023-04-15T00:08:42.636Z,8.15
2023-04-15T00:11:09.779Z,6.55
2023-04-15T00:13:37.885Z,6.93
2023-04-15T00:16:06.466Z,6.45
2023-04-15T00:18:34.006Z,6.70
2023-04-15T00:21:01.242Z,6.13
2023-04-15T00:23:29.165Z,8.45
2023-04-15T00:25:56.623Z,9.23
2023-04-15T00:28:24.210Z,7.72
2023-04-15T00:30:53.661Z,7.00
2023-04-15T00:33:20.965Z,7.10
2023-04-15T00:35:47.896Z,5.18
2023-04-15T00:38:15.196Z,3.45
2023-04-15T00:40:42.649Z,5.80
2023-04-15T00:43:10.286Z,6.03
2023-04-15T00:45:37.491Z,5.43
2023-04-15T00:48:05.770Z,4.53
2023-04-15T00:50:33.807Z,5.88
2023-04-15T00:53:01.426Z,7.05
2023-04-15T00:55:28.527Z,6.13
2023-04-15T00:57:57.620Z,4.53
2023-04-15T01:00:25.010Z,4.35
2023-04-15T01:02:52.491Z,5.03
2023-04-15T01:05:20.065Z,4.93
2023-04-15T01:07:48.342Z,4.85
2023-04-15T01:10:15.448Z,2.55
2023-04-15T01:12:43.436Z,3.45
2023-04-15T01:15:11.263Z,2.88
2023-04-15T01:17:39.800Z,3.08
2023-04-15T01:20:10.199Z,5.50
2023-04-15T01:22:38.464Z,5.07
2023-04-15T01:25:18.034Z,5.38
2023-04-15T01:27:45.739Z,6.28
2023-04-15T01:30:12.800Z,4.50
2023-04-15T01:32:40.284Z,5.70
2023-04-15T01:35:07.877Z,5.75
2023-04-15T01:37:36.013Z,6.45
2023-04-15T01:40:03.754Z,2.92
2023-04-15T01:42:32.777Z,6.65
2023-04-15T01:44:59.884Z,3.40
2023-04-15T01:47:27.242Z,4.25
2023-04-15T01:49:54.289Z,4.53
2023-04-15T01:52:21.586Z,4.18
2023-04-15T01:54:48.638Z,3.40
2023-04-15T01:57:17.457Z,4.72
2023-04-15T01:59:44.748Z,5.82
2023-04-15T02:02:12.986Z,3.63
2023-04-15T02:04:40.219Z,3.38
2023-04-15T02:07:08.817Z,5.85
2023-04-15T02:09:35.810Z,3.85
2023-04-15T02:12:03.297Z,2.95
2023-04-15T02:14:30.535Z,5.85
2023-04-15T02:16:58.035Z,6.05
2023-04-15T02:19:25.373Z,4.07
2023-04-15T02:21:52.665Z,5.05
2023-04-15T02:24:19.589Z,6.55
2023-04-15T02:26:46.926Z,5.95
2023-04-15T02:29:13.916Z,5.03
2023-04-15T02:31:42.420Z,3.92
2023-04-15T02:34:09.552Z,6.00
2023-04-15T02:36:37.237Z,6.50
2023-04-15T02:39:04.499Z,5.97
2023-04-15T02:41:31.854Z,6.22
2023-04-15T02:43:58.808Z,5.70
2023-04-15T02:46:27.717Z,5.30
2023-04-15T02:48:54.797Z,4.18
2023-04-15T02:51:26.561Z,5.63
2023-04-15T02:53:53.724Z,3.25
2023-04-15T02:56:24.367Z,4.10
2023-04-15T02:58:51.505Z,3.85
2023-04-15T03:01:21.527Z,3.88
2023-04-15T03:03:48.722Z,4.45
2023-04-15T03:06:16.598Z,3.30
2023-04-15T03:08:43.716Z,4.75
2023-04-15T03:11:11.349Z,4.25
2023-04-15T03:13:39.631Z,7.45
2023-04-15T03:16:07.595Z,3.55
2023-04-15T03:18:34.831Z,3.20
2023-04-15T03:21:03.031Z,4.93
2023-04-15T03:23:31.705Z,4.93
2023-04-15T03:26:02.668Z,5.32
2023-04-15T03:28:31.309Z,6.93
2023-04-15T03:30:59.687Z,4.63
2023-04-15T03:33:26.744Z,3.90
2023-04-15T03:35:54.060Z,5.45
2023-04-15T03:38:21.149Z,7.68
2023-04-15T03:40:49.543Z,5.47
2023-04-15T03:43:16.748Z,5.70
2023-04-15T03:45:44.054Z,7.63
2023-04-15T03:48:17.893Z,5.70
2023-04-15T03:50:46.747Z,5.20
2023-04-15T03:53:13.971Z,8.23
2023-04-15T03:55:41.344Z,5.85
2023-04-15T03:58:08.317Z,5.40
2023-04-15T04:00:35.652Z,7.35
2023-04-15T04:03:03.596Z,5.90
2023-04-15T04:05:32.972Z,6.32
2023-04-15T04:08:00.070Z,7.57
2023-04-15T04:10:28.538Z,6.55
2023-04-15T04:12:55.474Z,8.27
2023-04-15T04:15:22.803Z,7.18
2023-04-15T04:17:49.992Z,7.88
2023-04-15T04:20:17.435Z,6.80
2023-04-15T04:22:44.649Z,5.75
2023-04-15T04:25:11.996Z,6.45
2023-04-15T04:27:39.152Z,8.88
2023-04-15T04:30:07.409Z,10.10
2023-04-15T04:32:34.448Z,13.02
2023-04-15T04:35:02.414Z,10.48
2023-04-15T04:37:29.776Z,8.93
2023-04-15T04:39:57.092Z,7.65
2023-04-15T04:42:24.133Z,10.13
2023-04-15T04:44:51.803Z,7.53
2023-04-15T04:47:18.757Z,7.82
2023-04-15T04:49:46.206Z,8.55
2023-04-15T04:52:13.290Z,7.88
2023-04-15T04:54:40.623Z,7.03
2023-04-15T04:57:08.212Z,9.43
2023-04-15T04:59:36.001Z,11.10
2023-04-15T05:02:04.203Z,7.90
2023-04-15T05:04:32.975Z,10.88
2023-04-15T05:07:02.384Z,10.32
2023-04-15T05:09:32.528Z,7.55
2023-04-15T05:12:02.601Z,9.00
2023-04-15T05:14:30.276Z,9.80
2023-04-15T05:16:57.245Z,7.70
2023-04-15T05:19:25.154Z,9.63
2023-04-15T05:21:52.720Z,10.05
2023-04-15T05:24:20.065Z,9.43
2023-04-15T05:26:47.427Z,7.00
2023-04-15T05:29:14.862Z,8.32
2023-04-15T05:31:42.343Z,9.82
2023-04-15T05:34:11.885Z,8.57
2023-04-15T05:36:39.025Z,9.52
2023-04-15T05:39:07.248Z,6.45
2023-04-15T05:41:35.898Z,8.82
2023-04-15T05:44:03.296Z,8.45
2023-04-15T05:46:30.794Z,12.98
2023-04-15T05:48:58.707Z,9.43
2023-04-15T05:51:26.559Z,8.77
2023-04-15T05:53:54.018Z,12.30
2023-04-15T05:56:20.993Z,10.80
2023-04-15T05:58:48.394Z,10.80
2023-04-15T06:01:15.632Z,7.10
2023-04-15T06:03:44.171Z,11.60
2023-04-15T06:06:11.276Z,12.48
2023-04-15T06:08:38.890Z,12.32
2023-04-15T06:11:06.248Z,11.55
2023-04-15T06:13:34.103Z,7.95
2023-04-15T06:16:01.211Z,12.00
2023-04-15T06:18:28.691Z,11.60
2023-04-15T06:20:55.760Z,10.77
2023-04-15T06:23:23.158Z,6.93
2023-04-15T06:25:50.351Z,8.73
2023-04-15T06:28:17.805Z,8.65
2023-04-15T06:30:45.765Z,8.40
2023-04-15T06:33:13.748Z,8.05
2023-04-15T06:35:41.196Z,6.15
2023-04-15T06:38:08.665Z,8.63
2023-04-15T06:40:35.717Z,8.48
2023-04-15T06:43:03.103Z,7.18
2023-04-15T06:45:30.311Z,7.30
2023-04-15T06:47:57.655Z,5.97
2023-04-15T06:50:24.876Z,6.28
2023-04-15T06:52:53.719Z,8.63
2023-04-15T06:55:23.611Z,7.47
2023-04-15T06:57:50.921Z,6.80
2023-04-15T07:00:18.498Z,6.18
2023-04-15T07:02:47.029Z,8.90
2023-04-15T07:05:14.638Z,7.18
2023-04-15T07:07:42.376Z,6.55
2023-04-15T07:10:10.110Z,7.90
2023-04-15T07:12:37.975Z,8.65
2023-04-15T07:15:05.837Z,8.43
2023-04-15T07:17:34.895Z,7.55
2023-04-15T07:20:03.104Z,8.75
2023-04-15T07:22:30.487Z,7.35
2023-04-15T07:24:57.492Z,6.80
2023-04-15T07:27:25.003Z,7.43
2023-04-15T07:29:52.452Z,7.45
2023-04-15T07:32:20.824Z,8.65
2023-04-15T07:34:48.266Z,8.43
2023-04-15T07:37:15.912Z,6.15
2023-04-15T07:39:42.902Z,7.22
2023-04-15T07:42:10.759Z,8.70
2023-04-15T07:44:38.057Z,6.60
2023-04-15T07:47:07.103Z,9.18
2023-04-15T07:49:36.672Z,7.22
2023-04-15T07:52:05.245Z,6.82
2023-04-15T07:54:32.472Z,6.93
2023-04-15T07:56:59.912Z,7.82
2023-04-15T07:59:30.299Z,6.25
2023-04-15T08:01:59.619Z,6.97
2023-04-15T08:06:58.218Z,6.75
2023-04-15T08:09:25.307Z,5.35
2023-04-15T08:11:53.578Z,6.60
2023-04-15T08:14:24.247Z,7.15
2023-04-15T08:16:52.500Z,7.65
2023-04-15T08:19:19.848Z,8.30
2023-04-15T08:21:47.872Z,8.20
2023-04-15T08:24:15.740Z,7.72
2023-04-15T08:26:44.321Z,9.23
2023-04-15T08:29:12.169Z,6.65
2023-04-15T08:31:39.709Z,6.28
2023-04-15T08:34:08.665Z,6.28
2023-04-15T08:36:36.973Z,9.43
2023-04-15T08:39:05.133Z,8.95
2023-04-15T08:41:59.392Z,9.18
2023-04-15T08:44:28.743Z,6.50
2023-04-15T08:47:02.896Z,10.07
2023-04-15T08:52:13.337Z,7.68
2023-04-15T08:54:41.501Z,7.25
2023-04-15T08:57:09.471Z,7.53
2023-04-15T08:59:37.315Z,6.25
2023-04-15T09:02:11.116Z,8.27
2023-04-15T09:04:38.274Z,6.75
2023-04-15T09:07:06.586Z,6.50
2023-04-15T09:09:37.568Z,6.05
2023-04-15T09:12:04.896Z,6.60
2023-04-15T09:14:32.914Z,7.88
2023-04-15T09:17:02.652Z,9.63
2023-04-15T09:19:31.108Z,5.95
2023-04-15T09:21:59.718Z,7.13
2023-04-15T09:24:39.344Z,7.18
2023-04-15T09:27:08.474Z,6.63
2023-04-15T09:29:35.422Z,9.50
2023-04-15T09:32:19.105Z,10.60
2023-04-15T09:34:47.169Z,6.38
2023-04-15T09:37:32.279Z,11.13
2023-04-15T09:39:59.786Z,10.80
2023-04-15T09:42:28.397Z,9.02
2023-04-15T09:44:55.440Z,8.13
2023-04-15T09:47:32.546Z,8.10
2023-04-15T09:50:01.097Z,9.50
2023-04-15T09:52:29.078Z,10.55
2023-04-15T09:54:59.316Z,8.82
2023-04-15T09:57:34.641Z,8.13
2023-04-15T10:00:01.648Z,12.45
2023-04-15T10:02:35.199Z,11.25
2023-04-15T10:05:03.280Z,11.40
2023-04-15T10:07:35.147Z,12.40
2023-04-15T10:10:06.102Z,13.30
2023-04-15T10:12:34.439Z,12.68
2023-04-15T10:15:05.487Z,13.05
2023-04-15T10:17:35.931Z,10.45
2023-04-15T10:20:05.427Z,10.65
2023-04-15T10:22:33.349Z,12.07
2023-04-15T10:25:01.280Z,12.65
2023-04-15T10:27:29.416Z,11.90
2023-04-15T10:29:57.465Z,14.45
2023-04-15T10:32:25.803Z,13.95
2023-04-15T10:34:54.977Z,10.57
2023-04-15T10:37:33.686Z,12.10
2023-04-15T10:40:00.769Z,11.80
2023-04-15T10:42:36.229Z,13.52
2023-04-15T10:45:17.058Z,13.98
2023-04-15T10:47:51.685Z,12.50
2023-04-15T10:50:19.360Z,14.65
2023-04-15T10:52:49.440Z,14.68
2023-04-15T10:55:21.578Z,13.10
2023-04-15T10:57:58.662Z,14.40
2023-04-15T11:00:27.416Z,14.50
2023-04-15T11:03:12.240Z,12.38
2023-04-15T11:05:42.652Z,9.90
2023-04-15T11:08:12.279Z,12.25
2023-04-15T11:13:11.740Z,16.85
2023-04-15T11:15:47.193Z,11.98
2023-04-15T11:18:17.223Z,17.77
2023-04-15T11:20:50.724Z,16.70
2023-04-15T11:23:20.787Z,20.85
2023-04-15T11:25:49.180Z,20.23
2023-04-15T11:28:20.473Z,19.67
2023-04-15T11:30:48.391Z,15.73
2023-04-15T11:33:15.659Z,15.65
2023-04-15T11:35:45.567Z,15.00
2023-04-15T11:38:14.475Z,14.43
2023-04-15T11:40:44.559Z,17.35
2023-04-15T11:43:22.159Z,11.13
2023-04-15T11:45:53.401Z,12.48
2023-04-15T11:48:34.077Z,16.20
2023-04-15T11:51:03.077Z,16.40
2023-04-15T11:53:49.158Z,16.98
2023-04-15T11:56:24.406Z,17.35
2023-04-15T11:59:00.196Z,14.55
2023-04-15T12:01:39.026Z,14.45
2023-04-15T12:04:17.857Z,14.65
2023-04-15T12:06:45.874Z,14.27
2023-04-15T12:09:14.435Z,16.30
2023-04-15T12:11:59.772Z,12.27
2023-04-15T12:14:32.428Z,14.52
2023-04-15T12:17:05.093Z,14.75
2023-04-15T12:19:37.626Z,12.60
2023-04-15T12:22:13.904Z,14.75
2023-04-15T12:24:48.480Z,13.05
2023-04-15T12:27:16.722Z,12.45
2023-04-15T12:29:45.916Z,10.80
2023-04-15T12:32:15.228Z,11.00
2023-04-15T12:34:49.683Z,8.55
2023-04-15T12:37:20.110Z,9.50
2023-04-15T12:39:50.336Z,7.32
2023-04-15T12:42:18.496Z,8.43
2023-04-15T12:44:47.203Z,10.50
2023-04-15T12:47:15.570Z,7.32
2023-04-15T12:49:42.987Z,5.93
2023-04-15T12:52:10.079Z,6.20
2023-04-15T12:54:37.623Z,5.00
2023-04-15T12:57:07.191Z,4.72
2023-04-15T12:59:36.653Z,2.95
2023-04-15T13:02:04.322Z,6.57
2023-04-15T13:07:00.133Z,5.43
2023-04-15T13:09:27.616Z,5.93
2023-04-15T13:11:57.822Z,5.93
2023-04-15T13:14:25.834Z,8.45
2023-04-15T13:16:54.327Z,8.73
2023-04-15T13:21:49.350Z,6.10
2023-04-15T13:24:16.670Z,4.40
2023-04-15T13:26:44.270Z,3.55
2023-04-15T13:29:12.522Z,5.70
2023-04-15T13:31:40.050Z,5.40
2023-04-15T13:34:10.473Z,6.80
2023-04-15T13:36:37.600Z,3.38
2023-04-15T13:39:06.149Z,5.40
2023-04-15T13:41:38.377Z,3.60
2023-04-15T13:44:06.481Z,5.03
2023-04-15T13:46:34.155Z,4.57
2023-04-15T13:49:01.974Z,3.85
2023-04-15T13:51:29.401Z,5.30
2023-04-15T13:53:59.491Z,3.72
2023-04-15T13:56:26.772Z,4.38
2023-04-15T13:59:00.377Z,3.55
2023-04-15T14:01:27.532Z,4.43
2023-04-15T14:03:55.641Z,2.45
2023-04-15T14:06:23.161Z,1.95
2023-04-15T14:08:50.617Z,2.40
2023-04-15T14:11:17.600Z,4.45
2023-04-15T14:13:44.975Z,2.72
2023-04-15T14:16:12.090Z,2.72
2023-04-15T14:18:40.518Z,2.97
2023-04-15T14:21:07.621Z,2.63
2023-04-15T14:23:35.666Z,2.67
2023-04-15T14:26:02.695Z,1.55
2023-04-15T14:28:30.250Z,1.20
2023-04-15T14:30:58.301Z,2.35
2023-04-15T14:33:25.713Z,2.00
2023-04-15T14:35:52.855Z,1.85
2023-04-15T14:38:22.653Z,1.00
2023-04-15T14:40:49.748Z,1.35
2023-04-15T14:43:17.282Z,1.20
2023-04-15T14:45:45.409Z,1.25
2023-04-15T14:48:13.634Z,1.30
2023-04-15T14:50:40.838Z,1.80
2023-04-15T14:53:08.266Z,2.00
2023-04-15T14:55:35.274Z,1.15
2023-04-15T14:58:05.008Z,1.50
2023-04-15T15:00:32.417Z,1.70
2023-04-15T15:03:00.213Z,0.98
2023-04-15T15:05:31.587Z,2.30
2023-04-15T15:08:00.313Z,1.75
2023-04-15T15:10:32.766Z,0.75
2023-04-15T15:13:16.754Z,1.52
2023-04-15T15:15:44.193Z,0.93
2023-04-15T15:18:15.058Z,1.13
2023-04-15T15:20:45.926Z,0.85
2023-04-15T15:23:13.351Z,0.68
2023-04-15T15:25:40.678Z,0.70
2023-04-15T15:28:08.577Z,0.80
2023-04-15T15:30:41.741Z,1.67
2023-04-15T15:33:09.118Z,0.90
2023-04-15T15:35:36.418Z,1.00
2023-04-15T15:38:06.437Z,1.17
2023-04-15T15:40:33.768Z,1.17
2023-04-15T15:43:01.346Z,1.10
2023-04-15T15:45:30.875Z,0.90
2023-04-15T15:47:59.441Z,0.73
2023-04-15T15:50:27.010Z,1.27
2023-04-15T15:52:56.324Z,1.38
2023-04-15T15:55:25.502Z,1.13
2023-04-15T15:57:54.499Z,0.68
2023-04-15T16:00:23.282Z,0.68
2023-04-15T16:03:05.930Z,0.77
2023-04-15T16:05:34.722Z,1.30
2023-04-15T16:08:02.545Z,1.02
2023-04-15T16:10:30.586Z,0.55
2023-04-15T16:12:58.066Z,1.65
2023-04-15T16:15:25.804Z,1.40
2023-04-15T16:17:53.309Z,1.23
2023-04-15T16:20:20.501Z,1.30
2023-04-15T16:22:47.956Z,1.10
2023-04-15T16:25:14.914Z,1.45
2023-04-15T16:27:54.665Z,1.15
2023-04-15T16:30:24.717Z,1.85
2023-04-15T16:32:54.300Z,1.20
2023-04-15T16:35:21.398Z,1.40
2023-04-15T16:37:49.010Z,1.05
2023-04-15T16:40:16.585Z,1.65
2023-04-15T16:42:44.369Z,2.42
2023-04-15T16:45:12.194Z,1.90
2023-04-15T16:47:40.707Z,2.63
2023-04-15T16:50:09.848Z,2.00
2023-04-15T16:52:37.201Z,2.15
2023-04-15T16:55:05.256Z,2.30
2023-04-15T16:58:00.346Z,1.65
2023-04-15T17:00:20.346Z,2.78
2023-04-15T17:02:47.879Z,2.40
2023-04-15T17:05:15.112Z,2.58
2023-04-15T17:07:42.567Z,2.25
2023-04-15T17:10:09.729Z,2.63
2023-04-15T17:12:37.150Z,2.78
2023-04-15T17:15:09.188Z,2.92
2023-04-15T17:17:37.918Z,2.72
2023-04-15T17:20:05.580Z,2.80
2023-04-15T17:22:34.967Z,2.88
2023-04-15T17:25:03.277Z,2.88
2023-04-15T17:27:33.631Z,3.03
2023-04-15T17:30:01.063Z,3.97
2023-04-15T17:32:32.107Z,3.30
2023-04-15T17:35:01.371Z,3.28
2023-04-15T17:37:36.819Z,3.80
2023-04-15T17:40:08.011Z,3.97
2023-04-15T17:42:38.427Z,3.70
2023-04-15T17:45:05.956Z,4.25
2023-04-15T17:47:33.545Z,3.63
2023-04-15T17:53:03.948Z,3.03
2023-04-15T17:55:32.853Z,2.95
2023-04-15T17:58:00.949Z,4.30
2023-04-15T18:00:28.676Z,3.30
2023-04-15T18:02:59.565Z,3.63
2023-04-15T18:05:26.893Z,3.40
2023-04-15T18:07:54.581Z,3.92
2023-04-15T18:10:21.994Z,4.72
2023-04-15T18:12:49.843Z,4.22
2023-04-15T18:15:18.153Z,3.97
2023-04-15T18:17:46.431Z,5.03
2023-04-15T18:20:15.372Z,5.47
2023-04-15T18:22:43.751Z,5.65
2023-04-15T18:25:11.012Z,5.20
2023-04-15T18:27:41.442Z,5.78
2023-04-15T18:30:10.898Z,7.00
2023-04-15T18:32:41.324Z,6.55
2023-04-15T18:35:09.106Z,6.72
2023-04-15T18:37:36.510Z,6.03
2023-04-15T18:40:04.025Z,7.28
2023-04-15T18:42:31.448Z,10.80
2023-04-15T18:44:58.727Z,11.93
2023-04-15T18:47:27.724Z,12.52
2023-04-15T18:49:55.197Z,10.77
2023-04-15T18:52:24.188Z,8.93
2023-04-15T18:54:52.342Z,9.38
2023-04-15T18:57:37.847Z,10.85
2023-04-15T19:00:08.253Z,11.02
2023-04-15T19:05:04.358Z,6.40
2023-04-15T19:07:33.951Z,8.93
2023-04-15T19:10:03.729Z,9.30
2023-04-15T19:12:30.871Z,10.88
2023-04-15T19:15:01.467Z,9.57
2023-04-15T19:17:28.615Z,9.70
2023-04-15T19:19:56.277Z,8.75
2023-04-15T19:22:24.847Z,8.38
2023-04-15T19:24:52.834Z,9.07
2023-04-15T19:27:21.804Z,8.07
2023-04-15T19:29:49.519Z,10.55
2023-04-15T19:32:18.512Z,9.43
2023-04-15T19:34:46.050Z,9.93
2023-04-15T19:37:13.310Z,13.38
2023-04-15T19:39:42.312Z,13.45
2023-04-15T19:42:09.306Z,12.85
2023-04-15T19:44:38.072Z,12.48
2023-04-15T19:47:05.621Z,12.95
2023-04-15T19:49:33.577Z,13.57
2023-04-15T19:52:01.486Z,11.95
2023-04-15T19:54:29.328Z,12.80
2023-04-15T19:57:04.576Z,11.85
2023-04-15T19:59:33.333Z,12.88
2023-04-15T20:02:03.344Z,13.43
2023-04-15T20:04:31.495Z,11.95
2023-04-15T20:06:58.617Z,10.38
2023-04-15T20:09:26.284Z,11.98
2023-04-15T20:12:09.484Z,11.63
2023-04-15T20:14:40.692Z,10.93
2023-04-15T20:17:10.431Z,12.63
2023-04-15T20:19:37.867Z,12.40
2023-04-15T20:22:06.177Z,11.75
2023-04-15T20:24:33.758Z,10.43
2023-04-15T20:27:00.826Z,10.60
2023-04-15T20:29:28.176Z,12.02
2023-04-15T20:31:56.137Z,10.95
2023-04-15T20:34:23.513Z,11.65
2023-04-15T20:36:50.906Z,11.30
2023-04-15T20:39:18.185Z,11.20
2023-04-15T20:41:45.266Z,10.70
2023-04-15T20:44:12.627Z,10.10
2023-04-15T20:46:39.650Z,10.57
2023-04-15T20:49:07.236Z,12.73
2023-04-15T20:51:37.820Z,15.57
2023-04-15T20:54:06.511Z,12.32
2023-04-15T20:56:33.991Z,12.18
2023-04-15T20:59:01.846Z,13.15
2023-04-15T21:01:30.524Z,13.45
2023-04-15T21:03:59.112Z,12.73
2023-04-15T21:06:27.290Z,13.90
2023-04-15T21:08:54.691Z,12.40
2023-04-15T21:11:40.621Z,13.70
2023-04-15T21:14:09.282Z,13.48
2023-04-15T21:16:36.379Z,14.18
2023-04-15T21:19:04.043Z,14.35
2023-04-15T21:21:32.103Z,12.70
2023-04-15T21:23:59.835Z,13.00
2023-04-15T21:26:26.868Z,18.55
2023-04-15T21:28:54.771Z,13.38
2023-04-15T21:31:23.569Z,13.63
2023-04-15T21:33:51.370Z,13.45
2023-04-15T21:36:19.935Z,13.98
2023-04-15T21:38:47.402Z,13.73
2023-04-15T21:41:14.566Z,12.98
2023-04-15T21:43:42.143Z,11.75
2023-04-15T21:46:22.778Z,13.15
2023-04-15T21:48:55.767Z,11.82
2023-04-15T21:51:23.111Z,17.08
2023-04-15T21:53:50.551Z,9.55
2023-04-15T21:56:17.522Z,13.65
2023-04-15T21:58:44.847Z,14.32
2023-04-15T22:01:11.896Z,13.00
2023-04-15T22:03:39.645Z,12.27
2023-04-15T22:06:07.155Z,11.35
2023-04-15T22:08:41.769Z,11.70
2023-04-15T22:11:30.030Z,17.52
2023-04-15T22:13:58.722Z,15.00
2023-04-15T22:16:26.647Z,14.40
2023-04-15T22:18:55.031Z,14.40
2023-04-15T22:21:22.596Z,16.25
2023-04-15T22:23:49.976Z,13.65
2023-04-15T22:26:17.670Z,12.32
2023-04-15T22:28:45.581Z,13.60
2023-04-15T22:31:13.788Z,15.50
2023-04-15T22:33:42.302Z,16.13
2023-04-15T22:36:09.567Z,15.63
2023-04-15T22:38:37.005Z,16.20
2023-04-15T22:41:04.045Z,12.00
2023-04-15T22:43:31.510Z,16.20
2023-04-15T22:45:58.600Z,13.70
2023-04-15T22:48:26.325Z,14.15
2023-04-15T22:50:53.723Z,13.63
2023-04-15T22:53:21.318Z,13.45
2023-04-15T22:55:48.772Z,13.68
2023-04-15T22:58:17.191Z,13.25
2023-04-15T23:00:44.843Z,13.15
2023-04-15T23:03:12.457Z,14.20
2023-04-15T23:05:41.423Z,12.20
2023-04-15T23:08:09.079Z,12.88
2023-04-15T23:10:37.063Z,12.57
2023-04-15T23:13:04.476Z,13.27
2023-04-15T23:15:31.830Z,10.18
2023-04-15T23:18:00.587Z,6.97
2023-04-15T23:20:27.660Z,10.20
2023-04-15T23:22:54.961Z,5.53
2023-04-15T23:25:22.820Z,9.20
2023-04-15T23:27:50.329Z,10.10
2023-04-15T23:30:17.374Z,5.93
2023-04-15T23:32:44.823Z,12.13
2023-04-15T23:35:12.114Z,11.27
2023-04-15T23:37:39.569Z,13.40
2023-04-15T23:40:07.241Z,9.60
2023-04-15T23:42:34.559Z,12.77
2023-04-15T23:45:01.758Z,10.90
2023-04-15T23:47:29.137Z,11.75
2023-04-15T23:49:56.539Z,12.05
2023-04-15T23:52:24.157Z,11.93
2023-04-15T23:54:51.266Z,10.90
2023-04-15T23:57:19.850Z,8.88
2023-04-15T23:59:46.805Z,13.95
